Observation data for Haskell on 01/12/2018      Previous  Date  Next       Current Mesonet Observations  Soil Data  Daily Summary Page  Observations in Plain Language
KHA1 120600Z 01011KT M01/M09 A303 RMK A01 T10071090  RH  054%=      5-min Rain = 0
KHA1 120605Z 01011KT M01/M09 A3031 RMK A01 T10071090  RH  053%=      5-min Rain = 0
KHA1 120610Z 01012KT M01/M09 A3031 RMK A01 T10081091  RH  054%=      5-min Rain = 0
KHA1 120615Z 02013KT M01/M09 A303 RMK A01 T10091093  RH  053%=      5-min Rain = 0
KHA1 120620Z 02014KT M01/M09 A303 RMK A01 T10081094  RH  052%=      5-min Rain = 0
KHA1 120625Z 01013KT M01/M10 A303 RMK A01 T10101095  RH  052%=      5-min Rain = 0
KHA1 120630Z 01013KT M01/M10 A303 RMK A01 T10111096  RH  052%=      5-min Rain = 0
KHA1 120635Z 01014KT M01/M10 A3029 RMK A01 T10121097  RH  052%=      5-min Rain = 0
KHA1 120640Z 02013KT M01/M10 A303 RMK A01 T10131098  RH  052%=      5-min Rain = 0
KHA1 120645Z 02014KT M01/M10 A303 RMK A01 T10141101  RH  051%=      5-min Rain = 0
KHA1 120650Z 01011KT M02/M10 A303 RMK A01 T10151102  RH  052%=      5-min Rain = 0
KHA1 120655Z 01011KT M02/M10 A303 RMK A01 T10171102  RH  052%=      5-min Rain = 0
KHA1 120700Z 00010KT M02/M10 A303 RMK A01 T10191102  RH  053%=      5-min Rain = 0
KHA1 120705Z 01010KT M02/M10 A303 RMK A01 T10201102  RH  053%=      5-min Rain = 0
KHA1 120710Z 01010KT M02/M10 A303 RMK A01 T10211104  RH  053%=      5-min Rain = 0
KHA1 120715Z 01010KT M02/M11 A303 RMK A01 T10221105  RH  053%=      5-min Rain = 0
KHA1 120720Z 01011KT M02/M11 A303 RMK A01 T10231106  RH  053%=      5-min Rain = 0
KHA1 120725Z 01010KT M03/M11 A303 RMK A01 T10251106  RH  053%=      5-min Rain = 0
KHA1 120730Z 00009KT M03/M11 A303 RMK A01 T10261107  RH  054%=      5-min Rain = 0
KHA1 120735Z 01008KT M03/M11 A303 RMK A01 T10281107  RH  054%=      5-min Rain = 0
KHA1 120740Z 01008KT M03/M11 A303 RMK A01 T10301106  RH  055%=      5-min Rain = 0
KHA1 120745Z 02008KT M03/M11 A303 RMK A01 T10311106  RH  056%=      5-min Rain = 0
KHA1 120750Z 03009KT M03/M11 A303 RMK A01 T10311107  RH  055%=      5-min Rain = 0
KHA1 120755Z 02009KT M03/M11 A303 RMK A01 T10301108  RH  055%=      5-min Rain = 0
KHA1 120800Z 01008KT M03/M11 A303 RMK A01 T10311108  RH  055%=      5-min Rain = 0
KHA1 120805Z 00008KT M03/M11 A303 RMK A01 T10331108  RH  056%=      5-min Rain = 0
KHA1 120810Z 35008KT M04/M11 A3031 RMK A01 T10361107  RH  057%=      5-min Rain = 0
KHA1 120815Z 35008KT M04/M11 A303 RMK A01 T10391107  RH  059%=      5-min Rain = 0
KHA1 120820Z 34008KT M05/M11 A3031 RMK A01 T10451110  RH  060%=      5-min Rain = 0
KHA1 120825Z 33008KT M05/M11 A3031 RMK A01 T10491111  RH  062%=      5-min Rain = 0
KHA1 120830Z 34007KT M05/M11 A3031 RMK A01 T10501111  RH  062%=      5-min Rain = 0
KHA1 120835Z 34009KT M05/M11 A3031 RMK A01 T10511110  RH  063%=      5-min Rain = 0
KHA1 120840Z 35009KT M05/M11 A3031 RMK A01 T10491109  RH  063%=      5-min Rain = 0
KHA1 120845Z 35009KT M05/M11 A3031 RMK A01 T10471108  RH  062%=      5-min Rain = 0
KHA1 120850Z 36008KT M05/M11 A3031 RMK A01 T10471107  RH  062%=      5-min Rain = 0
KHA1 120855Z 00008KT M05/M11 A3031 RMK A01 T10461106  RH  062%=      5-min Rain = 0
KHA1 120900Z 00008KT M05/M11 A303 RMK A01 T10461106  RH  062%=      5-min Rain = 0
KHA1 120905Z 35007KT M05/M11 A3031 RMK A01 T10461107  RH  062%=      5-min Rain = 0
KHA1 120910Z 34007KT M05/M11 A3031 RMK A01 T10491109  RH  062%=      5-min Rain = 0
KHA1 120915Z 35006KT M05/M11 A3031 RMK A01 T10511109  RH  063%=      5-min Rain = 0
KHA1 120920Z 35005KT M05/M11 A3031 RMK A01 T10511109  RH  064%=      5-min Rain = 0
KHA1 120925Z 36006KT M05/M11 A303 RMK A01 T10511107  RH  064%=      5-min Rain = 0
KHA1 120930Z 00006KT M05/M11 A303 RMK A01 T10521106  RH  065%=      5-min Rain = 0
KHA1 120935Z 00006KT M05/M11 A303 RMK A01 T10511105  RH  066%=      5-min Rain = 0
KHA1 120940Z 36005KT M05/M11 A303 RMK A01 T10521106  RH  066%=      5-min Rain = 0
KHA1 120945Z 35004KT M05/M11 A303 RMK A01 T10531107  RH  065%=      5-min Rain = 0
KHA1 120950Z 33005KT M06/M11 A3031 RMK A01 T10571111  RH  065%=      5-min Rain = 0
KHA1 120955Z 34007KT M06/M11 A303 RMK A01 T10601111  RH  067%=      5-min Rain = 0
KHA1 121000Z 35007KT M06/M11 A303 RMK A01 T10591110  RH  067%=      5-min Rain = 0
KHA1 121005Z 34006KT M06/M11 A303 RMK A01 T10581109  RH  067%=      5-min Rain = 0
KHA1 121010Z 33005KT M06/M11 A303 RMK A01 T10591110  RH  067%=      5-min Rain = 0
KHA1 121015Z 36003KT M06/M11 A3029 RMK A01 T10601109  RH  068%=      5-min Rain = 0
KHA1 121020Z 01004KT M06/M11 A3029 RMK A01 T10581107  RH  068%=      5-min Rain = 0
KHA1 121025Z 35003KT M06/M11 A3029 RMK A01 T10571106  RH  068%=      5-min Rain = 0
KHA1 121030Z 01002KT M06/M11 A3029 RMK A01 T10581107  RH  068%=      5-min Rain = 0
KHA1 121035Z 01002KT M06/M11 A3029 RMK A01 T10601108  RH  068%=      5-min Rain = 0
KHA1 121040Z 33002KT M06/M11 A3029 RMK A01 T10601107  RH  069%=      5-min Rain = 0
KHA1 121045Z 35004KT M06/M11 A3029 RMK A01 T10601109  RH  068%=      5-min Rain = 0
KHA1 121050Z 35005KT M06/M11 A3029 RMK A01 T10621111  RH  068%=      5-min Rain = 0
KHA1 121055Z 35003KT M07/M11 A3029 RMK A01 T10651109  RH  070%=      5-min Rain = 0
KHA1 121100Z 36003KT M07/M11 A3029 RMK A01 T10661109  RH  071%=      5-min Rain = 0
KHA1 121105Z 35004KT M06/M11 A3029 RMK A01 T10641106  RH  072%=      5-min Rain = 0
KHA1 121110Z 33007KT M07/M11 A303 RMK A01 T10671113  RH  069%=      5-min Rain = 0
KHA1 121115Z 33007KT M07/M12 A303 RMK A01 T10741116  RH  072%=      5-min Rain = 0
KHA1 121120Z 32006KT M07/M11 A303 RMK A01 T10731113  RH  073%=      5-min Rain = 0
KHA1 121125Z 31004KT M07/M11 A303 RMK A01 T10711111  RH  072%=      5-min Rain = 0
KHA1 121130Z 31004KT M07/M11 A303 RMK A01 T10701110  RH  072%=      5-min Rain = 0
KHA1 121135Z 30006KT M07/M11 A3031 RMK A01 T10691112  RH  071%=      5-min Rain = 0
KHA1 121140Z 30007KT M07/M11 A3031 RMK A01 T10681111  RH  071%=      5-min Rain = 0
KHA1 121145Z 30006KT M07/M11 A3032 RMK A01 T10661111  RH  070%=      5-min Rain = 0
KHA1 121150Z 30005KT M07/M11 A3032 RMK A01 T10651111  RH  069%=      5-min Rain = 0
KHA1 121155Z 31006KT M07/M11 A3032 RMK A01 T10661113  RH  069%=      5-min Rain = 0
KHA1 121200Z 32007KT M07/M11 A3032 RMK A01 T10681114  RH  070%=      5-min Rain = 0
KHA1 121205Z 32007KT M07/M11 A3032 RMK A01 T10691114  RH  070%=      5-min Rain = 0
KHA1 121210Z 33007KT M07/M11 A3032 RMK A01 T10691113  RH  070%=      5-min Rain = 0
KHA1 121215Z 34007KT M07/M11 A3032 RMK A01 T10691114  RH  070%=      5-min Rain = 0
KHA1 121220Z 34006KT M07/M12 A3031 RMK A01 T10711115  RH  071%=      5-min Rain = 0
KHA1 121225Z 34006KT M07/M11 A3032 RMK A01 T10721114  RH  071%=      5-min Rain = 0
KHA1 121230Z 34004KT M07/M11 A3032 RMK A01 T10711114  RH  071%=      5-min Rain = 0
KHA1 121235Z 35005KT M07/M11 A3032 RMK A01 T10701114  RH  070%=      5-min Rain = 0
KHA1 121240Z 35006KT M07/M11 A3032 RMK A01 T10701114  RH  070%=      5-min Rain = 0
KHA1 121245Z 34006KT M07/M12 A3032 RMK A01 T10731116  RH  071%=      5-min Rain = 0
KHA1 121250Z 33005KT M08/M12 A3032 RMK A01 T10751116  RH  072%=      5-min Rain = 0
KHA1 121255Z 33005KT M08/M12 A3032 RMK A01 T10761116  RH  073%=      5-min Rain = 0
KHA1 121300Z 33005KT M08/M12 A3032 RMK A01 T10781116  RH  074%=      5-min Rain = 0
KHA1 121305Z 32004KT M08/M12 A3032 RMK A01 T10791117  RH  074%=      5-min Rain = 0
KHA1 121310Z 32004KT M08/M12 A3032 RMK A01 T10791116  RH  075%=      5-min Rain = 0
KHA1 121315Z 32005KT M08/M11 A3032 RMK A01 T10791114  RH  075%=      5-min Rain = 0
KHA1 121320Z 33005KT M08/M11 A3033 RMK A01 T10801114  RH  076%=      5-min Rain = 0
KHA1 121325Z 33005KT M08/M12 A3033 RMK A01 T10811115  RH  076%=      5-min Rain = 0
KHA1 121330Z 33005KT M08/M12 A3033 RMK A01 T10821116  RH  076%=      5-min Rain = 0
KHA1 121335Z 33003KT M08/M12 A3033 RMK A01 T10841118  RH  076%=      5-min Rain = 0
KHA1 121340Z 31002KT M08/M11 A3033 RMK A01 T10831114  RH  078%=      5-min Rain = 0
KHA1 121345Z 30003KT M08/M11 A3033 RMK A01 T10801111  RH  078%=      5-min Rain = 0
KHA1 121350Z 31003KT M08/M11 A3033 RMK A01 T10791111  RH  077%=      5-min Rain = 0
KHA1 121355Z 32004KT M08/M11 A3033 RMK A01 T10761110  RH  076%=      5-min Rain = 0
KHA1 121400Z 32005KT M08/M11 A3033 RMK A01 T10761112  RH  075%=      5-min Rain = 0
KHA1 121405Z 32005KT M08/M12 A3034 RMK A01 T10791115  RH  075%=      5-min Rain = 0
KHA1 121410Z 33005KT M08/M11 A3033 RMK A01 T10791113  RH  076%=      5-min Rain = 0
KHA1 121415Z 33005KT M08/M11 A3034 RMK A01 T10771112  RH  076%=      5-min Rain = 0
KHA1 121420Z 33005KT M07/M11 A3034 RMK A01 T10731108  RH  076%=      5-min Rain = 0
KHA1 121425Z 33004KT M07/M10 A3034 RMK A01 T10671104  RH  075%=      5-min Rain = 0
KHA1 121430Z 33005KT M06/M10 A3034 RMK A01 T10621102  RH  073%=      5-min Rain = 0
KHA1 121435Z 33004KT M06/M10 A3034 RMK A01 T10561100  RH  071%=      5-min Rain = 0
KHA1 121440Z 34006KT M05/M11 A3035 RMK A01 T10521105  RH  066%=      5-min Rain = 0
KHA1 121445Z 34006KT M05/M11 A3035 RMK A01 T10491110  RH  062%=      5-min Rain = 0
KHA1 121450Z 35007KT M05/M11 A3036 RMK A01 T10461112  RH  060%=      5-min Rain = 0
KHA1 121455Z 35007KT M04/M11 A3036 RMK A01 T10441114  RH  058%=      5-min Rain = 0
KHA1 121500Z 35008KT M04/M12 A3036 RMK A01 T10431116  RH  056%=      5-min Rain = 0
KHA1 121505Z 00008KT M04/M12 A3036 RMK A01 T10421116  RH  056%=      5-min Rain = 0
KHA1 121510Z 35008KT M04/M11 A3036 RMK A01 T10411114  RH  056%=      5-min Rain = 0
KHA1 121515Z 36009KT M04/M12 A3036 RMK A01 T10391115  RH  055%=      5-min Rain = 0
KHA1 121520Z 36008KT M04/M11 A3036 RMK A01 T10371114  RH  055%=      5-min Rain = 0
KHA1 121525Z 36008KT M04/M11 A3036 RMK A01 T10361112  RH  055%=      5-min Rain = 0
KHA1 121530Z 01008KT M03/M11 A3036 RMK A01 T10341112  RH  055%=      5-min Rain = 0
KHA1 121535Z 01008KT M03/M11 A3035 RMK A01 T10321113  RH  054%=      5-min Rain = 0
KHA1 121540Z 01008KT M03/M11 A3036 RMK A01 T10291109  RH  054%=      5-min Rain = 0
KHA1 121545Z 00007KT M03/M11 A3035 RMK A01 T10271107  RH  054%=      5-min Rain = 0
KHA1 121550Z 35008KT M02/M11 A3036 RMK A01 T10241105  RH  054%=      5-min Rain = 0
KHA1 121555Z 36008KT M02/M10 A3036 RMK A01 T10231104  RH  054%=      5-min Rain = 0
KHA1 121600Z 36008KT M02/M10 A3036 RMK A01 T10221104  RH  053%=      5-min Rain = 0
KHA1 121605Z 01006KT M02/M10 A3036 RMK A01 T10201103  RH  053%=      5-min Rain = 0
KHA1 121610Z 01007KT M02/M11 A3036 RMK A01 T10191105  RH  052%=      5-min Rain = 0
KHA1 121615Z 01006KT M02/M11 A3036 RMK A01 T10181110  RH  049%=      5-min Rain = 0
KHA1 121620Z 01006KT M02/M11 A3036 RMK A01 T10161109  RH  049%=      5-min Rain = 0
KHA1 121625Z 01006KT M02/M11 A3036 RMK A01 T10151111  RH  048%=      5-min Rain = 0
KHA1 121630Z 02006KT M01/M11 A3036 RMK A01 T10131111  RH  047%=      5-min Rain = 0
KHA1 121635Z 02006KT M01/M11 A3036 RMK A01 T10101112  RH  046%=      5-min Rain = 0
KHA1 121640Z 03005KT M01/M11 A3036 RMK A01 T10101113  RH  045%=      5-min Rain = 0
KHA1 121645Z 00004KT M01/M11 A3036 RMK A01 T10071113  RH  044%=      5-min Rain = 0
KHA1 121650Z 02004KT M01/M12 A3036 RMK A01 T10061115  RH  043%=      5-min Rain = 0
KHA1 121655Z 02005KT M01/M12 A3035 RMK A01 T10061123  RH  041%=      5-min Rain = 0
KHA1 121700Z 00004KT M01/M12 A3036 RMK A01 T10071124  RH  041%=      5-min Rain = 0
KHA1 121705Z 01005KT M00/M12 A3036 RMK A01 T10031119  RH  041%=      5-min Rain = 0
KHA1 121710Z 04004KT M00/M12 A3035 RMK A01 T10031121  RH  040%=      5-min Rain = 0
KHA1 121715Z 03004KT M00/M12 A3035 RMK A01 T10011120  RH  040%=      5-min Rain = 0
KHA1 121720Z 02003KT M00/M12 A3035 RMK A01 T10021120  RH  040%=      5-min Rain = 0
KHA1 121725Z 01003KT 00/M12 A3034 RMK A01 T00031118  RH  039%=      5-min Rain = 0
KHA1 121730Z 01003KT 01/M12 A3034 RMK A01 T00051119  RH  039%=      5-min Rain = 0
KHA1 121735Z 00002KT 01/M12 A3034 RMK A01 T00061115  RH  040%=      5-min Rain = 0
KHA1 121740Z 01004KT 01/M12 A3034 RMK A01 T00071116  RH  039%=      5-min Rain = 0
KHA1 121745Z 02005KT 01/M11 A3033 RMK A01 T00081113  RH  040%=      5-min Rain = 0
KHA1 121750Z 03004KT 01/M12 A3033 RMK A01 T00071119  RH  038%=      5-min Rain = 0
KHA1 121755Z 05003KT 01/M12 A3032 RMK A01 T00091116  RH  039%=      5-min Rain = 0
KHA1 121800Z 03005KT 01/M12 A3032 RMK A01 T00121116  RH  038%=      5-min Rain = 0
KHA1 121805Z 03004KT 01/M12 A3032 RMK A01 T00121120  RH  037%=      5-min Rain = 0
KHA1 121810Z 04004KT 01/M12 A3032 RMK A01 T00121119  RH  037%=      5-min Rain = 0
KHA1 121815Z 05003KT 01/M12 A3031 RMK A01 T00121118  RH  037%=      5-min Rain = 0
KHA1 121820Z 04004KT 01/M12 A3031 RMK A01 T00141117  RH  037%=      5-min Rain = 0
KHA1 121825Z 05003KT 02/M12 A303 RMK A01 T00171117  RH  036%=      5-min Rain = 0
KHA1 121830Z 00004KT 02/M12 A303 RMK A01 T00191117  RH  035%=      5-min Rain = 0
KHA1 121835Z 35003KT 02/M12 A303 RMK A01 T00181117  RH  036%=      5-min Rain = 0
KHA1 121840Z 32002KT 02/M12 A3029 RMK A01 T00201116  RH  036%=      5-min Rain = 0
KHA1 121845Z 00003KT 02/M12 A3029 RMK A01 T00231115  RH  035%=      5-min Rain = 0
KHA1 121850Z 05002KT 03/M12 A3028 RMK A01 T00261115  RH  034%=      5-min Rain = 0
KHA1 121855Z 22002KT 03/M12 A3027 RMK A01 T00291116  RH  033%=      5-min Rain = 0
KHA1 121900Z 36002KT 03/M12 A3027 RMK A01 T00311115  RH  033%=      5-min Rain = 0
KHA1 121905Z 10003KT 03/M12 A3026 RMK A01 T00331116  RH  032%=      5-min Rain = 0
KHA1 121910Z 01002KT 03/M12 A3026 RMK A01 T00331115  RH  033%=      5-min Rain = 0
KHA1 121915Z 04003KT 04/M11 A3026 RMK A01 T00351114  RH  033%=      5-min Rain = 0
KHA1 121920Z 12004KT 03/M12 A3025 RMK A01 T00341120  RH  031%=      5-min Rain = 0
KHA1 121925Z 17003KT 03/M12 A3025 RMK A01 T00321119  RH  032%=      5-min Rain = 0
KHA1 121930Z 17003KT 04/M12 A3025 RMK A01 T00381116  RH  031%=      5-min Rain = 0
KHA1 121935Z 12004KT 04/M12 A3025 RMK A01 T00381118  RH  031%=      5-min Rain = 0
KHA1 121940Z 12003KT 04/M12 A3025 RMK A01 T00391115  RH  031%=      5-min Rain = 0
KHA1 121945Z 10003KT 04/M12 A3025 RMK A01 T00431117  RH  030%=      5-min Rain = 0
KHA1 121950Z 15002KT 04/M12 A3024 RMK A01 T00411117  RH  030%=      5-min Rain = 0
KHA1 121955Z 17003KT 04/M12 A3024 RMK A01 T00431116  RH  030%=      5-min Rain = 0
KHA1 122000Z 13003G9KT 05/M12 A3023 RMK A01 T00471116  RH  029%=      5-min Rain = 0
KHA1 122005Z 12003KT 05/M12 A3023 RMK A01 T00481117  RH  029%=      5-min Rain = 0
KHA1 122010Z 10003KT 05/M12 A3023 RMK A01 T00461121  RH  028%=      5-min Rain = 0
KHA1 122015Z 11002KT 05/M12 A3023 RMK A01 T00491118  RH  028%=      5-min Rain = 0
KHA1 122020Z 11003KT 05/M12 A3023 RMK A01 T00521117  RH  028%=      5-min Rain = 0
KHA1 122025Z 13003KT 05/M12 A3023 RMK A01 T00511120  RH  028%=      5-min Rain = 0
KHA1 122030Z 13003KT 05/M12 A3023 RMK A01 T00531119  RH  027%=      5-min Rain = 0
KHA1 122035Z 13004KT 05/M12 A3023 RMK A01 T00521120  RH  027%=      5-min Rain = 0
KHA1 122040Z 08004KT 06/M12 A3023 RMK A01 T00581119  RH  026%=      5-min Rain = 0
KHA1 122045Z 11005KT 06/M13 A3023 RMK A01 T00551125  RH  026%=      5-min Rain = 0
KHA1 122050Z 11004KT 05/M13 A3023 RMK A01 T00541125  RH  026%=      5-min Rain = 0
KHA1 122055Z 10002KT 06/M12 A3022 RMK A01 T00581121  RH  026%=      5-min Rain = 0
KHA1 122100Z 09003KT 06/M12 A3022 RMK A01 T00631117  RH  026%=      5-min Rain = 0
KHA1 122105Z 12005KT 06/M12 A3022 RMK A01 T00611123  RH  025%=      5-min Rain = 0
KHA1 122110Z 10003KT 06/M12 A3023 RMK A01 T00591122  RH  026%=      5-min Rain = 0
KHA1 122115Z 11004KT 06/M12 A3023 RMK A01 T00611122  RH  025%=      5-min Rain = 0
KHA1 122120Z 12003KT 06/M12 A3023 RMK A01 T00641122  RH  025%=      5-min Rain = 0
KHA1 122125Z 14005KT 06/M13 A3023 RMK A01 T00611125  RH  025%=      5-min Rain = 0
KHA1 122130Z 13003KT 06/M12 A3022 RMK A01 T00631123  RH  025%=      5-min Rain = 0
KHA1 122135Z 09005KT 07/M13 A3023 RMK A01 T00661125  RH  024%=      5-min Rain = 0
KHA1 122140Z 07004KT 07/M13 A3022 RMK A01 T00671125  RH  024%=      5-min Rain = 0
KHA1 122145Z 08005KT 07/M12 A3023 RMK A01 T00671124  RH  024%=      5-min Rain = 0
KHA1 122150Z 11004KT 07/M12 A3023 RMK A01 T00661124  RH  024%=      5-min Rain = 0
KHA1 122155Z 13003KT 07/M12 A3022 RMK A01 T00661124  RH  024%=      5-min Rain = 0
KHA1 122200Z 10005KT 07/M13 A3022 RMK A01 T00681125  RH  024%=      5-min Rain = 0
KHA1 122205Z 10004KT 07/M13 A3022 RMK A01 T00721127  RH  023%=      5-min Rain = 0
KHA1 122210Z 08004KT 07/M13 A3022 RMK A01 T00701127  RH  023%=      5-min Rain = 0
KHA1 122215Z 08004KT 07/M13 A3022 RMK A01 T00691127  RH  023%=      5-min Rain = 0
KHA1 122220Z 10004KT 07/M13 ANAN RMK A01 T00711128  RH  023%=      5-min Rain = 0
KHA1 122225Z 10004KT 07/M13 A3022 RMK A01 T00711129  RH  022%=      5-min Rain = 0
KHA1 122230Z 12004KT 07/M13 A3022 RMK A01 T00711129  RH  023%=      5-min Rain = 0
KHA1 122235Z 12005KT 07/M13 A3022 RMK A01 T00691130  RH  023%=      5-min Rain = 0
KHA1 122240Z 13004KT 07/M13 A3022 RMK A01 T00681128  RH  023%=      5-min Rain = 0
KHA1 122245Z 11004KT 07/M13 A3022 RMK A01 T00691128  RH  023%=      5-min Rain = 0
KHA1 122250Z 09005KT 07/M13 A3022 RMK A01 T00731128  RH  022%=      5-min Rain = 0
KHA1 122255Z 09004KT 07/M13 A3023 RMK A01 T00721128  RH  022%=      5-min Rain = 0
KHA1 122300Z 08004KT 07/M13 A3023 RMK A01 T00731128  RH  022%=      5-min Rain = 0
KHA1 122305Z 08004KT 07/M13 A3023 RMK A01 T00711127  RH  023%=      5-min Rain = 0
KHA1 122310Z 09004KT 07/M13 A3023 RMK A01 T00711127  RH  023%=      5-min Rain = 0
KHA1 122315Z 06004KT 07/M13 A3023 RMK A01 T00701126  RH  023%=      5-min Rain = 0
KHA1 122320Z 07004KT 07/M13 A3023 RMK A01 T00671125  RH  024%=      5-min Rain = 0
KHA1 122325Z 06004KT 07/M12 A3023 RMK A01 T00661121  RH  025%=      5-min Rain = 0
KHA1 122330Z 07006KT 06/M12 A3023 RMK A01 T00641121  RH  025%=      5-min Rain = 0
KHA1 122335Z 06007KT 06/M12 A3023 RMK A01 T00621121  RH  025%=      5-min Rain = 0
KHA1 122340Z 06008KT 06/M12 A3023 RMK A01 T00591121  RH  026%=      5-min Rain = 0
KHA1 122345Z 05008KT 06/M12 A3024 RMK A01 T00561120  RH  027%=      5-min Rain = 0
KHA1 122350Z 05009KT 05/M12 A3024 RMK A01 T00531118  RH  028%=      5-min Rain = 0
KHA1 122355Z 05008KT 05/M12 A3025 RMK A01 T00491117  RH  029%=      5-min Rain = 0
KHA1 130000Z 05009KT 05/M12 A3025 RMK A01 T00461118  RH  029%=      5-min Rain = 0
KHA1 130005Z 05009KT 04/M12 A3025 RMK A01 T00441118  RH  030%=      5-min Rain = 0
KHA1 130010Z 05009KT 04/M12 A3025 RMK A01 T00401118  RH  030%=      5-min Rain = 0
KHA1 130015Z 05008KT 04/M12 A3025 RMK A01 T00381117  RH  031%=      5-min Rain = 0
KHA1 130020Z 05009KT 04/M12 A3026 RMK A01 T00361116  RH  032%=      5-min Rain = 0
KHA1 130025Z 05008KT 03/M12 A3026 RMK A01 T00341116  RH  032%=      5-min Rain = 0
KHA1 130030Z 05008KT 03/M12 A3027 RMK A01 T00311116  RH  033%=      5-min Rain = 0
KHA1 130035Z 05008KT 03/M12 A3027 RMK A01 T00291116  RH  033%=      5-min Rain = 0
KHA1 130040Z 05008KT 03/M12 A3027 RMK A01 T00271116  RH  034%=      5-min Rain = 0
KHA1 130045Z 06008KT 03/M12 A3027 RMK A01 T00261117  RH  034%=      5-min Rain = 0
KHA1 130050Z 06007KT 03/M12 A3027 RMK A01 T00251118  RH  034%=      5-min Rain = 0
KHA1 130055Z 06007KT 02/M12 A3028 RMK A01 T00221119  RH  034%=      5-min Rain = 0
KHA1 130100Z 07008KT 02/M12 A3028 RMK A01 T00201119  RH  035%=      5-min Rain = 0
KHA1 130105Z 06008KT 02/M12 A3028 RMK A01 T00181120  RH  035%=      5-min Rain = 0
KHA1 130110Z 06008KT 02/M12 A3029 RMK A01 T00181121  RH  035%=      5-min Rain = 0
KHA1 130115Z 07009KT 02/M12 A3029 RMK A01 T00161122  RH  035%=      5-min Rain = 0
KHA1 130120Z 07009KT 01/M12 A3029 RMK A01 T00141123  RH  035%=      5-min Rain = 0
KHA1 130125Z 07008KT 01/M12 A3029 RMK A01 T00121122  RH  036%=      5-min Rain = 0
KHA1 130130Z 07008KT 01/M12 A303 RMK A01 T00101122  RH  036%=      5-min Rain = 0
KHA1 130135Z 07008KT 01/M12 A3029 RMK A01 T00081122  RH  037%=      5-min Rain = 0
KHA1 130140Z 08008KT 01/M12 A3029 RMK A01 T00071122  RH  037%=      5-min Rain = 0
KHA1 130145Z 08008KT 01/M12 A303 RMK A01 T00061123  RH  037%=      5-min Rain = 0
KHA1 130150Z 07008KT 01/M12 A303 RMK A01 T00051123  RH  037%=      5-min Rain = 0
KHA1 130155Z 07009KT 00/M12 A303 RMK A01 T00031123  RH  038%=      5-min Rain = 0
KHA1 130200Z 07009KT 00/M12 A3031 RMK A01 T00031123  RH  038%=      5-min Rain = 0
KHA1 130205Z 07008KT 00/M12 A3031 RMK A01 T00031124  RH  038%=      5-min Rain = 0
KHA1 130210Z 07008KT 00/M12 A3031 RMK A01 T00031124  RH  038%=      5-min Rain = 0
KHA1 130215Z 07008KT 00/M13 A3032 RMK A01 T00021125  RH  038%=      5-min Rain = 0
KHA1 130220Z 06009KT 00/M13 A3033 RMK A01 T00021126  RH  037%=      5-min Rain = 0
KHA1 130225Z 06009KT 00/M13 A3033 RMK A01 T00021125  RH  038%=      5-min Rain = 0
KHA1 130230Z 06009KT 00/13 A3033 RMK A01 T00000-125  RH  038%=      5-min Rain = 0
KHA1 130235Z 06009KT 00/13 A3034 RMK A01 T00-00-125  RH  038%=      5-min Rain = 0
KHA1 130240Z 06009KT M00/M13 A3034 RMK A01 T10011125  RH  039%=      5-min Rain = 0
KHA1 130245Z 06009KT M00/M13 A3034 RMK A01 T10031125  RH  039%=      5-min Rain = 0
KHA1 130250Z 06009KT M00/M12 A3035 RMK A01 T10041124  RH  040%=      5-min Rain = 0
KHA1 130255Z 06010KT M01/M12 A3035 RMK A01 T10051124  RH  040%=      5-min Rain = 0
KHA1 130300Z 06009KT M01/M12 A3035 RMK A01 T10061124  RH  040%=      5-min Rain = 0
KHA1 130305Z 07008KT M01/M12 A3035 RMK A01 T10081123  RH  041%=      5-min Rain = 0
KHA1 130310Z 07009KT M01/M12 A3035 RMK A01 T10091123  RH  042%=      5-min Rain = 0
KHA1 130315Z 06008KT M01/M12 A3036 RMK A01 T10101123  RH  042%=      5-min Rain = 0
KHA1 130320Z 07008KT M01/M12 A3036 RMK A01 T10121122  RH  042%=      5-min Rain = 0
KHA1 130325Z 07008KT M01/M12 A3036 RMK A01 T10131122  RH  043%=      5-min Rain = 0
KHA1 130330Z 06009KT M01/M12 A3037 RMK A01 T10141122  RH  043%=      5-min Rain = 0
KHA1 130335Z 06008KT M01/M12 A3037 RMK A01 T10141122  RH  043%=      5-min Rain = 0
KHA1 130340Z 05009KT M01/M12 A3038 RMK A01 T10141123  RH  043%=      5-min Rain = 0
KHA1 130345Z 05009KT M01/M12 A3038 RMK A01 T10141123  RH  043%=      5-min Rain = 0
KHA1 130350Z 06010KT M01/M12 A3038 RMK A01 T10141123  RH  043%=      5-min Rain = 0
KHA1 130355Z 06010KT M01/M12 A3038 RMK A01 T10141123  RH  043%=      5-min Rain = 0
KHA1 130400Z 06010KT M01/M12 A3038 RMK A01 T10141123  RH  043%=      5-min Rain = 0
KHA1 130405Z 06009KT M02/M12 A3038 RMK A01 T10151123  RH  043%=      5-min Rain = 0
KHA1 130410Z 05010KT M02/M12 A3039 RMK A01 T10151123  RH  043%=      5-min Rain = 0
KHA1 130415Z 05010KT M02/M12 A3039 RMK A01 T10171122  RH  044%=      5-min Rain = 0
KHA1 130420Z 05010KT M02/M12 A304 RMK A01 T10171121  RH  045%=      5-min Rain = 0
KHA1 130425Z 05008KT M02/M12 A3039 RMK A01 T10171120  RH  045%=      5-min Rain = 0
KHA1 130430Z 05009KT M02/M12 A3039 RMK A01 T10181120  RH  045%=      5-min Rain = 0
KHA1 130435Z 05009KT M02/M12 A304 RMK A01 T10181120  RH  045%=      5-min Rain = 0
KHA1 130440Z 05009KT M02/M12 A304 RMK A01 T10181120  RH  045%=      5-min Rain = 0
KHA1 130445Z 04009KT M02/M12 A3041 RMK A01 T10191120  RH  046%=      5-min Rain = 0
KHA1 130450Z 05008KT M02/M12 A3041 RMK A01 T10221120  RH  047%=      5-min Rain = 0
KHA1 130455Z 04009KT M02/M12 A3041 RMK A01 T10231120  RH  047%=      5-min Rain = 0
KHA1 130500Z 05009KT M03/M12 A3042 RMK A01 T10251120  RH  048%=      5-min Rain = 0
KHA1 130505Z 06008KT M02/M12 A3041 RMK A01 T10231121  RH  047%=      5-min Rain = 0
KHA1 130510Z 06007KT M02/M12 A3041 RMK A01 T10211122  RH  046%=      5-min Rain = 0
KHA1 130515Z 06007KT M02/M12 A3042 RMK A01 T10211122  RH  046%=      5-min Rain = 0
KHA1 130520Z 06007KT M02/M12 A3042 RMK A01 T10211122  RH  046%=      5-min Rain = 0
KHA1 130525Z 06006KT M02/M12 A3043 RMK A01 T10211123  RH  045%=      5-min Rain = 0
KHA1 130530Z 05006KT M02/M12 A3043 RMK A01 T10231123  RH  046%=      5-min Rain = 0
KHA1 130535Z 05008KT M02/M12 A3043 RMK A01 T10241123  RH  046%=      5-min Rain = 0
KHA1 130540Z 04008KT M03/M12 A3043 RMK A01 T10271123  RH  047%=      5-min Rain = 0
KHA1 130545Z 04008KT M03/M12 A3043 RMK A01 T10291123  RH  048%=      5-min Rain = 0
KHA1 130550Z 04008KT M03/M12 A3043 RMK A01 T10311124  RH  048%=      5-min Rain = 0
KHA1 130555Z 03008KT M03/M12 A3044 RMK A01 T10321122  RH  050%=      5-min Rain = 0

Page generated in 0.0093 seconds.